Flight Track Log - Related Links

Times and Time Zones

All times are in EDT time to prevent confusion due to time zone crossing. See the N449ND flight status page for this flight to view local times or setup timezone preferences in your user account.

Time Position Orientation Groundspeed Altitude Reporting Facility
EDT Latitude Longitude Course Direction KTS MPH feet Rate Location/Type
03:40PM 27.4972 -80.3550 152° Southeast 69 79 600  Level Miami Center
03:41PM 27.4778 -80.3472 160° South 87 100 1,200 581 Climbing Miami Center
03:42PM 27.4531 -80.3511 188° South 88 101 1,800 629 Climbing Miami Center
03:43PM 27.4283 -80.3544 187° South 87 100 2,500 581 Climbing Miami Center
03:44PM 27.4025 -80.3619 194° South 88 101 3,000 293 Climbing Miami Center
03:45PM 27.4975 -80.3726 152° Southeast  Level Estimated
03:45PM 27.3744 -80.3619 180° South 92 106 3,100  Level Miami Center
03:46PM 27.3650 -80.3847 245° Southwest 110 127 3,100 242 Level Miami Center
03:47PM 27.3911 -80.4000 333° Northwest 102 117 3,600 435 Climbing Miami Center
03:48PM 27.4150 -80.4139 333° Northwest 96 110 4,000 145 Climbing Miami Center
03:49PM 27.4436 -80.4283 336° Northwest 104 120 3,900  Descending Miami Center
03:50PM 27.4700 -80.4403 338° Northwest 101 116 4,000 49 Climbing Miami Center
03:51PM 27.4944 -80.4519 337° Northwest 101 116 4,000 48 Level Miami Center
03:53PM 27.5214 -80.4589 347° North 102 117 4,100 48 Climbing Miami Center
03:54PM 27.5489 -80.4458 23° Northeast 102 117 4,100  Level Miami Center
03:55PM 27.5733 -80.4514 349° North 101 116 4,100 -98 Level Miami Center
03:56PM 27.5597 -80.4825 244° Southwest 105 121 3,900 -48 Descending Miami Center
03:57PM 27.5636 -80.5122 278° West 100 115 4,000 48 Climbing Miami Center
03:58PM 27.5650 -80.5442 273° West 101 116 4,000 -244 Level Miami Center
03:59PM 27.5561 -80.5775 253° West 106 122 3,500 -829 Descending Miami Center
04:00PM 27.5536 -80.6142 266° West 108 124 2,300 -726 Descending Miami Center
04:01PM 27.5444 -80.6431 250° West 110 127 2,000 -98 Descending Miami Center
04:02PM 27.5189 -80.6392 172° South 95 109 2,100 49 Climbing Miami Center
04:03PM 27.4936 -80.6294 161° South 94 108 2,100 -48 Level Miami Center
04:04PM 27.4681 -80.6181 158° South 94 108 2,000 -48 Descending Miami Center
04:05PM 27.4433 -80.6067 158° South 93 107 2,000  Level Miami Center
04:06PM 27.4361 -80.5889 115° Southeast 89 102 2,000 48 Level Miami Center
04:07PM 27.4636 -80.5944 350° North 97 112 2,100  Climbing Miami Center
04:08PM 27.4911 -80.5956 358° North 97 112 2,000 -49 Descending Miami Center
04:09PM 27.4994 -80.5731 67° East 95 109 2,000 -48 Level Miami Center
04:10PM 27.4983 -80.5456 93° East 86 99 1,900 -48 Descending Miami Center
04:11PM 27.4986 -80.5194 89° East 86 99 1,900 -49 Level Miami Center
04:12PM 27.4978 -80.4883 92° East 89 102 1,800 -195 Descending Miami Center
04:13PM 27.4978 -80.4633 90° East 80 92 1,500 -484 Descending Miami Center
04:14PM 27.4975 -80.4386 91° East 79 91 800 -339 Descending Miami Center
04:15PM 27.4981 -80.4136 89° East 79 91 800 -195 Level Miami Center
04:16PM 27.4975 -80.3900 92° East 78 90 400 -49 Descending Miami Center
04:17PM 27.4956 -80.3664 95° East 77 89 700 435 Climbing Miami Center
04:18PM 27.4711 -80.3669 181° South 85 98 1,300 484 Climbing Miami Center
04:19PM 27.4467 -80.3700 186° South 85 98 1,700 532 Climbing Miami Center
04:20PM 27.4200 -80.3756 190° South 92 106 2,400 585 Climbing Miami Center
04:21PM 27.4292 -80.3972 295° West 98 113 2,900 488 Climbing Miami Center
04:22PM 27.4539 -80.4089 337° Northwest 94 108 3,400 435 Climbing Miami Center
04:23PM 27.4797 -80.4194 340° North 94 108 3,800 339 Climbing Miami Center
04:24PM 27.5069 -80.4264 347° North 95 109 4,100 145 Climbing Miami Center
04:25PM 27.5361 -80.4372 342° North 104 120 4,100  Level Miami Center
04:27PM 27.5636 -80.4486 340° North 103 119 4,100  Level Miami Center
04:28PM 27.5625 -80.4808 268° West 109 125 4,100  Level Miami Center
04:29PM 27.5628 -80.5158 271° West 106 122 4,100  Level Miami Center
04:30PM 27.5736 -80.5469 291° West 105 121 4,100 -49 Level Miami Center
04:31PM 27.5897 -80.5775 301° West 106 122 4,000 -244 Descending Miami Center
04:32PM 27.6044 -80.6050 301° West 116 133 3,600 -720 Descending Miami Center
04:33PM 27.5831 -80.6172 207° Southwest 100 115 2,500 -720 Descending Miami Center
04:34PM 27.5692 -80.5931 123° Southeast 99 114 2,100 -194 Descending Miami Center
04:35PM 27.5433 -80.5942 182° South 99 114 2,100  Level Miami Center
04:36PM 27.5158 -80.5925 177° South 97 112 2,100 -48 Level Miami Center
04:37PM 27.4981 -80.5803 149° Southeast 87 100 2,000 -97 Descending Miami Center
04:38PM 27.4989 -80.5525 88° East 85 98 1,900 -97 Descending Miami Center
04:39PM 27.4981 -80.5253 92° East 86 99 1,800  Descending Miami Center
04:40PM 27.4978 -80.4972 91° East 85 98 1,900 -48 Climbing Miami Center
04:41PM 27.4983 -80.4731 89° East 85 98 1,700 -387 Descending Miami Center
04:42PM 27.4972 -80.4467 93° East 81 93 1,100 -484 Descending Miami Center
04:43PM 27.4972 -80.4222 90° East 80 92 700 -242 Descending Miami Center
04:44PM 27.4975 -80.3975 89° East 78 90 600 16 Descending Miami Center
05:27PM 27.4722 -80.3550 148° Southeast 80 92 1,400 34 Climbing Miami Center
05:28PM 27.4481 -80.3589 188° South 81 93 2,100 581 Climbing Miami Center
05:29PM 27.4236 -80.3600 182° South 82 94 2,600 439 Climbing Miami Center
05:30PM 27.3983 -80.3628 186° South 83 96 3,000 195 Climbing Miami Center
05:31PM 27.3919 -80.3908 256° West 113 130 3,000 48 Level Miami Center
05:32PM 27.3964 -80.4242 279° West 106 122 3,100  Climbing Miami Center
05:33PM 27.4017 -80.4589 280° West 106 122 3,000  Descending Miami Center
05:34PM 27.4064 -80.4947 278° West 107 123 3,100  Climbing Miami Center
05:35PM 27.4103 -80.5292 277° West 107 123 3,000 -48 Descending Miami Center
05:36PM 27.4131 -80.5628 275° West 107 123 3,000 -244 Level Miami Center
05:37PM 27.4217 -80.5944 287° West 109 125 2,500 -488 Descending Miami Center
05:38PM 27.4497 -80.5964 356° North 99 114 2,000 -194 Descending Miami Center
05:39PM 27.4781 -80.5953 North 99 114 2,100 49 Climbing Miami Center
05:41PM 27.5017 -80.5892 13° North 98 113 2,100 -98 Level Miami Center
05:42PM 27.4992 -80.5592 95° East 98 113 1,900 -97 Descending Miami Center
05:43PM 27.4989 -80.5311 91° East 88 101 1,900  Level Miami Center
05:44PM 27.4989 -80.5031 90° East 86 99 1,900 -98 Level Miami Center
05:45PM 27.4983 -80.4756 91° East 87 100 1,700 -390 Descending Miami Center
05:46PM 27.4981 -80.4519 91° East 83 96 1,100 -484 Descending Miami Center
05:47PM 27.4975 -80.4269 91° East 78 90 700 -244 Descending Miami Center
05:48PM 27.4978 -80.4022 89° East 78 90 600 -98 Descending Miami Center
05:49PM 27.4972 -80.3786 92° East 76 87 500 242 Descending Miami Center
05:50PM 27.4953 -80.3528 95° East 77 89 1,100 532 Climbing Miami Center
05:51PM 27.4928 -80.3283 97° East 80 92 1,600 537 Climbing Miami Center
05:52PM 27.4878 -80.3017 102° East 80 92 2,200 585 Climbing Miami Center
05:53PM 27.4833 -80.2764 101° East 80 92 2,800 387 Climbing Miami Center
05:54PM 27.4797 -80.2458 98° East 89 102 3,000 145 Climbing Miami Center
05:55PM 27.4764 -80.2131 97° East 99 114 3,100 49 Climbing Miami Center
05:56PM 27.4717 -80.1822 100° East 101 116 3,100 -49 Level Miami Center
05:57PM 27.4667 -80.1500 100° East 101 116 3,000 -48 Descending Miami Center
05:58PM 27.4639 -80.1178 96° East 101 116 3,000  Level Miami Center
05:59PM 27.4453 -80.1158 175° South 112 129 3,000  Level Miami Center
06:00PM 27.4625 -80.1436 305° West 104 120 3,000 48 Level Miami Center
06:01PM 27.4858 -80.1492 348° North 113 130 3,100  Climbing Miami Center
06:02PM 27.4717 -80.1242 123° Southeast 98 113 3,000 -49 Descending Miami Center
06:03PM 27.4564 -80.0978 123° Southeast 96 110 3,000 -49 Level Miami Center
06:04PM 27.4392 -80.0731 128° Southeast 96 110 2,900 -48 Descending Miami Center
06:05PM 27.4314 -80.0969 250° West 112 129 2,900  Level Miami Center
06:06PM 27.4542 -80.1208 317° Northwest 109 125 2,900 49 Level Miami Center
06:07PM 27.4550 -80.1569 271° West 111 128 3,000 48 Climbing Miami Center
06:08PM 27.4542 -80.1919 268° West 111 128 3,000  Level Miami Center
06:09PM 27.4475 -80.2253 257° West 107 123 3,000  Level Miami Center
06:10PM 27.4447 -80.2583 265° West 111 128 3,000  Level Miami Center
06:11PM 27.4422 -80.2947 266° West 111 128 3,000 293 Level Miami Center
06:12PM 27.4392 -80.3258 264° West 97 112 3,600 488 Climbing Miami Center
06:13PM 27.4364 -80.3569 264° West 93 107 4,000 194 Climbing Miami Center
06:14PM 27.4333 -80.3900 264° West 109 125 4,000  Level Miami Center
06:15PM 27.4308 -80.4242 265° West 106 122 4,000 -49 Level Miami Center
06:17PM 27.4278 -80.4589 264° West 107 123 3,900 -48 Descending Miami Center
06:18PM 27.4253 -80.4911 265° West 105 121 3,900 -390 Level Miami Center
06:19PM 27.4219 -80.5242 264° West 106 122 3,100 -780 Descending Miami Center
06:20PM 27.4192 -80.5597 265° West 109 125 2,300 -484 Descending Miami Center
06:21PM 27.4161 -80.5950 264° West 109 125 2,100 -146 Descending Miami Center
06:22PM 27.4433 -80.6025 346° North 105 121 2,000  Descending Miami Center
06:23PM 27.4706 -80.5956 13° North 98 113 2,100  Climbing Miami Center
06:24PM 27.4981 -80.5950 North 98 113 2,000 -49 Descending Miami Center
06:25PM 27.4983 -80.5656 89° East 96 110 2,000 -98 Level Miami Center
06:26PM 27.4978 -80.5358 91° East 96 110 1,800 -97 Descending Miami Center
06:27PM 27.4981 -80.5075 89° East 87 100 1,800  Level Miami Center
06:28PM 27.4978 -80.4800 91° East 89 102 1,800 -244 Level Miami Center
06:29PM 27.4975 -80.4547 91° East 83 96 1,300 -537 Descending Miami Center
06:30PM 27.4978 -80.4294 89° East 80 92 700 -439 Descending Miami Center
06:31PM 27.4978 -80.4056 90° East 75 86 400 -293 Descending Miami Center
06:32PM 27.4975 -80.3867 91° East 67 77 100 -295 Descending Miami Center

Login

Don't have an account? Register now (free) for customized features, flight alerts, and more!